createdAt,value
2024-05-09T00:00:31.616Z,11.83
2024-05-09T00:03:05.541Z,11.82
2024-05-09T00:05:32.317Z,11.83
2024-05-09T00:07:59.173Z,11.83
2024-05-09T00:10:35.372Z,11.82
2024-05-09T00:13:04.990Z,11.82
2024-05-09T00:15:31.735Z,11.83
2024-05-09T00:17:58.481Z,11.82
2024-05-09T00:20:33.560Z,11.82
2024-05-09T00:23:05.013Z,11.81
2024-05-09T00:25:34.251Z,11.82
2024-05-09T00:28:00.959Z,11.83
2024-05-09T00:30:33.741Z,11.84
2024-05-09T00:33:02.861Z,11.82
2024-05-09T00:35:29.767Z,11.81
2024-05-09T00:37:56.563Z,11.81
2024-05-09T00:40:31.097Z,11.78
2024-05-09T00:43:07.629Z,11.75
2024-05-09T00:45:34.380Z,11.74
2024-05-09T00:48:02.528Z,11.74
2024-05-09T00:50:35.735Z,11.72
2024-05-09T00:53:04.787Z,11.68
2024-05-09T00:55:31.448Z,11.65
2024-05-09T00:57:58.082Z,11.61
2024-05-09T01:00:35.597Z,11.62
2024-05-09T01:03:06.215Z,11.60
2024-05-09T01:05:33.119Z,11.57
2024-05-09T01:07:59.851Z,11.53
2024-05-09T01:10:33.596Z,11.50
2024-05-09T01:13:02.752Z,11.45
2024-05-09T01:15:32.098Z,11.43
2024-05-09T01:18:01.144Z,11.42
2024-05-09T01:20:37.396Z,11.40
2024-05-09T01:23:12.038Z,11.38
2024-05-09T01:25:39.057Z,11.35
2024-05-09T01:28:05.879Z,11.36
2024-05-09T01:30:35.694Z,11.34
2024-05-09T01:33:04.953Z,11.32
2024-05-09T01:35:32.447Z,11.30
2024-05-09T01:37:59.066Z,11.28
2024-05-09T01:40:36.508Z,11.27
2024-05-09T01:43:05.789Z,11.22
2024-05-09T01:45:32.475Z,11.19
2024-05-09T01:47:59.299Z,11.18
2024-05-09T01:50:37.158Z,11.14
2024-05-09T01:53:07.364Z,11.12
2024-05-09T01:55:36.686Z,11.10
2024-05-09T01:58:03.350Z,11.06
2024-05-09T02:00:37.590Z,11.03
2024-05-09T02:03:08.106Z,10.99
2024-05-09T02:05:34.816Z,10.93
2024-05-09T02:08:01.843Z,10.87
2024-05-09T02:10:32.540Z,10.84
2024-05-09T02:13:02.601Z,10.80
2024-05-09T02:15:29.101Z,10.75
2024-05-09T02:17:55.851Z,10.70
2024-05-09T02:20:30.277Z,10.65
2024-05-09T02:23:02.375Z,10.64
2024-05-09T02:25:30.316Z,10.59
2024-05-09T02:27:56.846Z,10.56
2024-05-09T02:30:35.818Z,10.51
2024-05-09T02:33:06.903Z,10.45
2024-05-09T02:35:33.909Z,10.41
2024-05-09T02:38:01.069Z,10.37
2024-05-09T02:40:35.799Z,10.33
2024-05-09T02:43:04.900Z,10.27
2024-05-09T02:45:34.077Z,10.21
2024-05-09T02:48:01.729Z,10.14
2024-05-09T02:50:34.346Z,10.10
2024-05-09T02:53:05.418Z,10.06
2024-05-09T02:55:32.183Z,10.01
2024-05-09T02:57:58.753Z,9.97
2024-05-09T03:00:34.453Z,9.93
2024-05-09T03:03:09.584Z,9.88
2024-05-09T03:05:37.801Z,9.84
2024-05-09T03:08:04.966Z,9.80
2024-05-09T03:10:36.121Z,9.77
2024-05-09T03:13:05.589Z,9.72
2024-05-09T03:15:32.139Z,9.67
2024-05-09T03:17:58.818Z,9.64
2024-05-09T03:20:33.594Z,9.60
2024-05-09T03:23:02.837Z,9.56
2024-05-09T03:25:30.027Z,9.51
2024-05-09T03:27:56.833Z,9.47
2024-05-09T03:30:30.949Z,9.44
2024-05-09T03:33:09.381Z,9.41
2024-05-09T03:35:38.792Z,9.38
2024-05-09T03:38:05.469Z,9.37
2024-05-09T03:40:32.027Z,9.36
2024-05-09T03:42:58.614Z,9.34
2024-05-09T03:45:25.233Z,9.32
2024-05-09T03:47:52.125Z,9.31
2024-05-09T03:50:26.156Z,9.30
2024-05-09T03:53:05.217Z,9.29
2024-05-09T03:55:31.954Z,9.31
2024-05-09T03:57:58.668Z,9.32
2024-05-09T04:00:31.236Z,9.34
2024-05-09T04:03:05.108Z,9.44
2024-05-09T04:05:32.233Z,9.99
2024-05-09T04:07:59.066Z,10.94
2024-05-09T04:10:33.220Z,12.08
2024-05-09T04:13:01.702Z,13.27
2024-05-09T04:15:28.353Z,14.25
2024-05-09T04:17:55.146Z,15.15
2024-05-09T04:20:32.937Z,16.05
2024-05-09T04:23:05.056Z,16.83
2024-05-09T04:25:34.463Z,16.93
2024-05-09T04:28:01.021Z,17.16
2024-05-09T04:30:36.409Z,17.61
2024-05-09T04:33:07.768Z,17.89
2024-05-09T04:35:35.919Z,17.79
2024-05-09T04:38:03.227Z,17.62
2024-05-09T04:40:34.169Z,17.48
2024-05-09T04:43:06.394Z,17.34
2024-05-09T04:45:33.395Z,17.09
2024-05-09T04:48:00.397Z,16.88
2024-05-09T04:50:35.885Z,16.91
2024-05-09T04:53:05.806Z,16.95
2024-05-09T04:55:32.762Z,17.11
2024-05-09T04:57:59.279Z,17.31
2024-05-09T05:00:35.247Z,17.42
2024-05-09T05:03:08.531Z,17.31
2024-05-09T05:05:37.798Z,17.19
2024-05-09T05:08:05.598Z,17.21
2024-05-09T05:10:36.155Z,17.14
2024-05-09T05:13:06.199Z,17.15
2024-05-09T05:15:35.444Z,17.15
2024-05-09T05:18:02.376Z,17.10
2024-05-09T05:20:33.541Z,17.01
2024-05-09T05:23:01.111Z,17.02
2024-05-09T05:25:27.850Z,16.87
2024-05-09T05:27:54.421Z,16.74
2024-05-09T05:30:25.360Z,16.61
2024-05-09T05:32:58.461Z,16.55
2024-05-09T05:35:25.176Z,16.48
2024-05-09T05:37:51.923Z,16.32
2024-05-09T05:40:27.916Z,16.14
2024-05-09T05:43:01.613Z,16.10
2024-05-09T05:45:28.152Z,16.12
2024-05-09T05:47:55.083Z,16.11
2024-05-09T05:50:32.279Z,16.13
2024-05-09T05:53:02.742Z,16.16
2024-05-09T05:55:29.295Z,16.31
2024-05-09T05:57:55.879Z,16.41
2024-05-09T06:00:29.729Z,16.48
2024-05-09T06:03:04.255Z,16.63
2024-05-09T06:05:33.798Z,16.72
2024-05-09T06:08:00.639Z,16.63
2024-05-09T06:10:37.031Z,16.70
2024-05-09T06:13:06.363Z,16.68
2024-05-09T06:15:32.891Z,16.68
2024-05-09T06:17:59.615Z,16.71
2024-05-09T06:20:34.746Z,16.72
2024-05-09T06:23:07.140Z,16.81
2024-05-09T06:25:33.849Z,16.89
2024-05-09T06:28:00.877Z,17.03
2024-05-09T06:30:36.623Z,17.08
2024-05-09T06:33:06.784Z,17.09
2024-05-09T06:35:34.048Z,17.13
2024-05-09T06:38:00.916Z,17.13
2024-05-09T06:40:37.018Z,17.13
2024-05-09T06:43:05.902Z,17.23
2024-05-09T06:45:32.605Z,17.34
2024-05-09T06:47:59.474Z,17.43
2024-05-09T06:50:28.638Z,17.52
2024-05-09T06:53:02.092Z,17.56
2024-05-09T06:55:31.435Z,17.66
2024-05-09T06:57:57.939Z,17.76
2024-05-09T07:00:30.899Z,17.88
2024-05-09T07:03:07.309Z,18.05
2024-05-09T07:05:34.052Z,18.11
2024-05-09T07:08:00.714Z,18.11
2024-05-09T07:10:33.031Z,18.20
2024-05-09T07:13:15.510Z,18.28
2024-05-09T07:15:42.775Z,18.31
2024-05-09T07:18:10.712Z,18.37
2024-05-09T07:20:37.994Z,18.43
2024-05-09T07:23:05.055Z,18.52
2024-05-09T07:25:31.758Z,18.44
2024-05-09T07:27:58.346Z,18.48
2024-05-09T07:30:33.158Z,18.59
2024-05-09T07:33:01.684Z,18.60
2024-05-09T07:35:29.222Z,18.59
2024-05-09T07:37:55.936Z,18.66
2024-05-09T07:40:32.224Z,18.68
2024-05-09T07:43:03.044Z,18.66
2024-05-09T07:53:35.717Z,18.45
2024-05-09T07:55:47.595Z,18.44
2024-05-09T07:58:14.171Z,18.51
2024-05-09T08:00:43.594Z,18.56
2024-05-09T08:03:12.894Z,18.57
2024-05-09T08:05:39.481Z,18.64
2024-05-09T08:08:06.204Z,18.67
2024-05-09T08:10:32.785Z,18.68
2024-05-09T08:12:59.369Z,18.68
2024-05-09T08:15:25.878Z,18.71
2024-05-09T08:17:55.196Z,18.78
2024-05-09T08:20:30.291Z,18.80
2024-05-09T08:22:57.847Z,18.76
2024-05-09T08:25:24.432Z,18.79
2024-05-09T08:27:50.991Z,18.81
2024-05-09T08:30:24.750Z,18.79
2024-05-09T08:32:59.056Z,18.84
2024-05-09T08:35:25.638Z,18.88
2024-05-09T08:37:52.714Z,18.90
2024-05-09T08:40:27.309Z,18.91
2024-05-09T08:42:57.567Z,18.90
2024-05-09T08:45:24.449Z,18.94
2024-05-09T08:47:52.204Z,18.97
2024-05-09T08:50:31.642Z,19.06
2024-05-09T08:53:04.668Z,19.12
2024-05-09T08:55:31.282Z,19.16
2024-05-09T08:57:58.797Z,19.21
2024-05-09T09:00:33.964Z,19.28
2024-05-09T09:03:04.780Z,19.30
2024-05-09T09:05:37.945Z,19.33
2024-05-09T09:08:06.542Z,19.32
2024-05-09T09:10:33.634Z,19.42
2024-05-09T09:13:01.655Z,19.50
2024-05-09T09:15:28.380Z,19.59
2024-05-09T09:17:56.503Z,19.61
2024-05-09T09:20:29.506Z,19.70
2024-05-09T09:23:05.071Z,19.70
2024-05-09T09:25:31.845Z,19.69
2024-05-09T09:27:58.728Z,19.74
2024-05-09T09:30:35.276Z,19.80
2024-05-09T09:33:05.263Z,19.87
2024-05-09T09:35:32.141Z,20.01
2024-05-09T09:38:01.968Z,20.16
2024-05-09T09:40:35.095Z,20.34
2024-05-09T09:43:05.328Z,20.56
2024-05-09T09:45:32.339Z,20.79
2024-05-09T09:47:59.343Z,20.99
2024-05-09T09:50:33.379Z,21.12
2024-05-09T09:53:01.373Z,21.23
2024-05-09T09:55:28.239Z,21.22
2024-05-09T09:57:57.584Z,21.22
2024-05-09T10:00:32.064Z,21.32
2024-05-09T10:03:00.219Z,21.34
2024-05-09T10:05:27.360Z,21.24
2024-05-09T10:07:54.686Z,21.20
2024-05-09T10:10:31.432Z,21.29
2024-05-09T10:13:03.052Z,21.40
2024-05-09T10:15:29.867Z,21.50
2024-05-09T10:18:04.341Z,21.55
2024-05-09T10:20:39.079Z,21.69
2024-05-09T10:23:05.647Z,21.82
2024-05-09T10:25:32.279Z,22.02
2024-05-09T10:27:58.892Z,22.09
2024-05-09T10:30:34.136Z,22.13
2024-05-09T10:33:03.093Z,22.18
2024-05-09T10:35:31.226Z,22.26
2024-05-09T10:38:03.274Z,22.34
2024-05-09T10:40:31.723Z,22.36
2024-05-09T10:43:01.897Z,22.39
2024-05-09T10:45:34.951Z,22.34
2024-05-09T10:48:02.085Z,22.36
2024-05-09T10:50:33.663Z,22.37
2024-05-09T10:53:02.407Z,22.51
2024-05-09T10:55:29.083Z,22.69
2024-05-09T10:57:55.751Z,22.92
2024-05-09T11:00:27.826Z,23.08
2024-05-09T11:03:02.733Z,23.27
2024-05-09T11:05:29.453Z,23.41
2024-05-09T11:07:56.111Z,23.64
2024-05-09T11:10:27.831Z,23.63
2024-05-09T11:13:00.430Z,23.56
2024-05-09T11:15:37.161Z,23.48
2024-05-09T11:18:06.778Z,23.64
2024-05-09T11:20:36.429Z,23.85
2024-05-09T11:23:04.386Z,23.95
2024-05-09T11:25:31.041Z,23.98
2024-05-09T11:27:58.445Z,24.05
2024-05-09T11:30:30.097Z,24.07
2024-05-09T11:32:58.817Z,24.14
2024-05-09T11:35:28.060Z,24.21
2024-05-09T11:37:54.818Z,24.28
2024-05-09T11:40:25.623Z,24.35
2024-05-09T11:42:58.652Z,24.50
2024-05-09T11:45:25.250Z,24.68
2024-05-09T11:47:51.920Z,24.75
2024-05-09T11:50:26.616Z,24.81
2024-05-09T11:52:59.382Z,24.72
2024-05-09T11:55:28.105Z,24.67
2024-05-09T11:57:55.373Z,24.70
2024-05-09T12:00:29.594Z,24.85
2024-05-09T12:03:03.392Z,24.87
2024-05-09T12:05:30.130Z,24.87
2024-05-09T12:07:59.618Z,24.97
2024-05-09T12:10:32.505Z,25.09
2024-05-09T12:13:02.085Z,25.17
2024-05-09T12:15:28.963Z,25.23
2024-05-09T12:17:58.338Z,25.30
2024-05-09T12:20:35.276Z,25.39
2024-05-09T12:23:09.511Z,25.43
2024-05-09T12:25:37.293Z,25.40
2024-05-09T12:28:04.238Z,25.31
2024-05-09T12:30:36.742Z,25.11
2024-05-09T12:33:08.287Z,25.03
2024-05-09T12:35:35.194Z,24.87
2024-05-09T12:38:02.023Z,24.77
2024-05-09T12:40:36.142Z,24.71
2024-05-09T12:43:05.251Z,24.71
2024-05-09T12:45:32.177Z,24.83
2024-05-09T12:47:59.192Z,24.92
2024-05-09T12:50:32.273Z,25.04
2024-05-09T12:53:00.817Z,25.06
2024-05-09T12:55:28.452Z,25.08
2024-05-09T12:58:01.019Z,25.09
2024-05-09T13:00:31.771Z,25.15
2024-05-09T13:03:01.062Z,25.23
2024-05-09T13:05:28.160Z,25.35
2024-05-09T13:07:55.139Z,25.32
2024-05-09T13:10:29.063Z,25.27
2024-05-09T13:13:02.201Z,25.21
2024-05-09T13:15:29.733Z,25.18
2024-05-09T13:17:59.444Z,25.14
2024-05-09T13:20:33.022Z,25.12
2024-05-09T13:23:02.645Z,25.12
2024-05-09T13:25:29.264Z,25.16
2024-05-09T13:27:56.228Z,25.07
2024-05-09T13:30:30.224Z,25.05
2024-05-09T13:33:06.468Z,25.12
2024-05-09T13:35:33.659Z,25.07
2024-05-09T13:38:00.683Z,25.09
2024-05-09T13:40:33.096Z,25.11
2024-05-09T13:43:02.167Z,25.08
2024-05-09T13:45:31.622Z,25.11
2024-05-09T13:47:58.697Z,25.08
2024-05-09T13:50:33.255Z,25.11
2024-05-09T13:53:02.580Z,25.19
2024-05-09T13:55:29.134Z,25.29
2024-05-09T13:57:55.994Z,25.31
2024-05-09T14:00:32.339Z,25.29
2024-05-09T14:03:12.112Z,25.41
2024-05-09T14:05:38.957Z,25.25
2024-05-09T14:08:05.994Z,25.05
2024-05-09T14:10:32.970Z,25.03
2024-05-09T14:12:59.807Z,25.10
2024-05-09T14:15:26.507Z,25.17
2024-05-09T14:17:53.340Z,25.23
2024-05-09T14:20:30.693Z,25.28
2024-05-09T14:22:58.765Z,25.36
2024-05-09T14:25:26.911Z,25.35
2024-05-09T14:27:53.628Z,25.30
2024-05-09T14:30:29.742Z,25.19
2024-05-09T14:33:01.432Z,25.08
2024-05-09T14:35:30.778Z,25.04
2024-05-09T14:37:57.475Z,25.18
2024-05-09T14:42:53.642Z,25.27
2024-05-09T14:45:20.167Z,25.38
2024-05-09T14:47:46.852Z,25.46
2024-05-09T14:50:19.649Z,25.42
2024-05-09T14:52:56.873Z,25.35
2024-05-09T14:55:23.733Z,25.24
2024-05-09T14:57:50.384Z,25.17
2024-05-09T15:00:24.844Z,25.12
2024-05-09T15:02:55.248Z,25.11
2024-05-09T15:05:21.936Z,25.13
2024-05-09T15:07:48.597Z,25.07
2024-05-09T15:10:26.525Z,25.06
2024-05-09T15:13:00.040Z,25.03
2024-05-09T15:15:26.830Z,24.95
2024-05-09T15:17:54.207Z,24.90
2024-05-09T15:20:27.915Z,24.75
2024-05-09T15:23:00.813Z,24.61
2024-05-09T15:25:30.182Z,24.53
2024-05-09T15:27:57.040Z,24.56
2024-05-09T15:30:30.928Z,24.54
2024-05-09T15:33:00.079Z,24.59
2024-05-09T15:35:27.019Z,24.56
2024-05-09T15:37:53.721Z,24.51
2024-05-09T15:40:30.473Z,24.42
2024-05-09T15:43:07.793Z,24.29
2024-05-09T15:45:35.248Z,24.21
2024-05-09T15:48:03.261Z,24.20
2024-05-09T15:50:37.130Z,24.15
2024-05-09T15:53:08.211Z,24.10
2024-05-09T15:55:35.777Z,24.03
2024-05-09T15:58:03.207Z,23.98
2024-05-09T16:00:37.980Z,23.98
2024-05-09T16:03:11.298Z,23.98
2024-05-09T16:05:38.835Z,23.89
2024-05-09T16:08:05.963Z,23.87
2024-05-09T16:10:34.299Z,23.84
2024-05-09T16:13:02.269Z,23.76
2024-05-09T16:15:29.646Z,23.71
2024-05-09T16:17:59.034Z,23.69
2024-05-09T16:20:34.463Z,23.64
2024-05-09T16:23:06.295Z,23.56
2024-05-09T16:25:33.001Z,23.45
2024-05-09T16:27:59.870Z,23.37
2024-05-09T16:30:33.828Z,23.28
2024-05-09T16:33:05.791Z,23.13
2024-05-09T16:35:32.542Z,23.11
2024-05-09T16:38:01.026Z,23.06
2024-05-09T16:40:36.129Z,22.94
2024-05-09T16:43:06.507Z,22.83
2024-05-09T16:45:33.713Z,22.76
2024-05-09T16:48:01.373Z,22.65
2024-05-09T16:50:33.547Z,22.53
2024-05-09T16:53:02.007Z,22.46
2024-05-09T16:55:28.777Z,22.40
2024-05-09T16:57:56.154Z,22.32
2024-05-09T17:00:34.796Z,22.22
2024-05-09T17:03:07.624Z,22.10
2024-05-09T17:05:37.782Z,22.03
2024-05-09T17:08:04.993Z,21.96
2024-05-09T17:10:34.128Z,21.88
2024-05-09T17:13:02.197Z,21.77
2024-05-09T17:15:29.128Z,21.69
2024-05-09T17:17:55.849Z,21.67
2024-05-09T17:20:29.688Z,21.63
2024-05-09T17:23:03.724Z,21.56
2024-05-09T17:25:30.388Z,21.52
2024-05-09T17:27:57.280Z,21.49
2024-05-09T17:30:32.188Z,21.47
2024-05-09T17:33:03.139Z,21.40
2024-05-09T17:35:29.846Z,21.34
2024-05-09T17:37:56.612Z,21.31
2024-05-09T17:40:32.509Z,21.26
2024-05-09T17:43:02.147Z,21.20
2024-05-09T17:45:28.903Z,21.12
2024-05-09T17:47:55.823Z,21.05
2024-05-09T17:50:30.230Z,20.98
2024-05-09T17:53:01.435Z,20.89
2024-05-09T17:55:30.827Z,20.81
2024-05-09T17:57:57.561Z,20.75
2024-05-09T18:00:33.730Z,20.68
2024-05-09T18:03:05.875Z,20.60
2024-05-09T18:05:32.954Z,20.52
2024-05-09T18:07:59.696Z,20.48
2024-05-09T18:10:33.250Z,20.41
2024-05-09T18:13:06.822Z,20.34
2024-05-09T18:15:33.775Z,20.27
2024-05-09T18:18:01.104Z,20.19
2024-05-09T18:20:37.758Z,20.10
2024-05-09T18:23:10.061Z,20.02
2024-05-09T18:25:36.630Z,19.95
2024-05-09T18:28:03.287Z,19.84
2024-05-09T18:30:35.469Z,19.77
2024-05-09T18:33:04.305Z,19.70
2024-05-09T18:35:31.606Z,19.62
2024-05-09T18:37:58.202Z,19.53
2024-05-09T18:40:32.793Z,19.45
2024-05-09T18:43:02.775Z,19.36
2024-05-09T18:45:32.572Z,19.27
2024-05-09T18:47:59.568Z,19.16
2024-05-09T18:50:34.823Z,19.08
2024-05-09T18:53:05.108Z,18.95
2024-05-09T18:55:31.725Z,18.86
2024-05-09T18:57:58.372Z,18.76
2024-05-09T19:00:33.513Z,18.66
2024-05-09T19:03:06.888Z,18.55
2024-05-09T19:05:34.265Z,18.47
2024-05-09T19:08:01.616Z,18.38
2024-05-09T19:10:33.821Z,18.29
2024-05-09T19:13:04.357Z,18.21
2024-05-09T19:15:33.661Z,18.13
2024-05-09T19:18:00.615Z,18.06
2024-05-09T19:20:34.283Z,17.99
2024-05-09T19:23:02.534Z,17.90
2024-05-09T19:25:29.068Z,17.84
2024-05-09T19:27:55.835Z,17.78
2024-05-09T19:30:30.174Z,17.71
2024-05-09T19:33:04.826Z,17.63
2024-05-09T19:35:34.248Z,17.59
2024-05-09T19:38:01.062Z,17.53
2024-05-09T19:40:31.970Z,17.47
2024-05-09T19:43:00.495Z,17.41
2024-05-09T19:45:27.149Z,17.36
2024-05-09T19:47:53.890Z,17.31
2024-05-09T19:50:27.047Z,17.25
2024-05-09T19:53:05.214Z,17.19
2024-05-09T19:55:31.762Z,17.13
2024-05-09T19:57:59.895Z,17.08
2024-05-09T20:00:32.963Z,17.01
2024-05-09T20:03:02.791Z,16.94
2024-05-09T20:05:29.648Z,16.89
2024-05-09T20:07:56.372Z,16.82
2024-05-09T20:10:31.436Z,16.75
2024-05-09T20:13:00.195Z,16.68
2024-05-09T20:15:26.898Z,16.61
2024-05-09T20:17:53.840Z,16.53
2024-05-09T20:20:28.656Z,16.47
2024-05-09T20:23:03.177Z,16.39
2024-05-09T20:25:32.580Z,16.32
2024-05-09T20:27:59.159Z,16.23
2024-05-09T20:30:31.619Z,16.17
2024-05-09T20:33:00.647Z,16.11
2024-05-09T20:35:28.651Z,16.03
2024-05-09T20:37:55.216Z,15.98
2024-05-09T20:40:28.882Z,15.92
2024-05-09T20:43:02.385Z,15.86
2024-05-09T20:45:29.039Z,15.80
2024-05-09T20:47:55.739Z,15.74
2024-05-09T20:50:29.226Z,15.67
2024-05-09T20:53:03.448Z,15.61
2024-05-09T20:55:30.364Z,15.56
2024-05-09T20:57:57.260Z,15.50
2024-05-09T21:00:35.368Z,15.44
2024-05-09T21:03:07.348Z,15.38
2024-05-09T21:05:35.045Z,15.31
2024-05-09T21:08:02.191Z,15.24
2024-05-09T21:10:32.792Z,15.20
2024-05-09T21:13:00.691Z,15.13
2024-05-09T21:15:29.953Z,15.09
2024-05-09T21:17:56.577Z,15.03
2024-05-09T21:20:28.654Z,14.98
2024-05-09T21:22:57.940Z,14.93
2024-05-09T21:25:24.715Z,14.89
2024-05-09T21:27:52.145Z,14.85
2024-05-09T21:30:30.631Z,14.81
2024-05-09T21:33:07.977Z,14.74
2024-05-09T21:35:34.809Z,14.69
2024-05-09T21:38:01.344Z,14.64
2024-05-09T21:40:34.127Z,14.62
2024-05-09T21:43:02.656Z,14.57
2024-05-09T21:45:29.398Z,14.52
2024-05-09T21:47:56.230Z,14.47
2024-05-09T21:50:32.463Z,14.42
2024-05-09T21:53:05.863Z,14.36
2024-05-09T21:55:32.505Z,14.32
2024-05-09T21:57:59.115Z,14.26
2024-05-09T22:00:32.981Z,14.23
2024-05-09T22:03:04.055Z,14.19
2024-05-09T22:05:33.954Z,14.15
2024-05-09T22:08:00.865Z,14.11
2024-05-09T22:10:33.708Z,14.07
2024-05-09T22:13:02.689Z,14.03
2024-05-09T22:15:29.343Z,14.00
2024-05-09T22:17:56.946Z,13.97
2024-05-09T22:20:32.956Z,13.94
2024-05-09T22:23:05.743Z,13.92
2024-05-09T22:25:32.874Z,13.88
2024-05-09T22:28:00.024Z,13.85
2024-05-09T22:30:34.843Z,13.82
2024-05-09T22:33:05.678Z,13.78
2024-05-09T22:35:32.421Z,13.75
2024-05-09T22:37:59.412Z,13.71
2024-05-09T22:40:38.448Z,13.68
2024-05-09T22:43:14.078Z,13.63
2024-05-09T22:45:41.055Z,13.60
2024-05-09T22:48:08.574Z,13.58
2024-05-09T22:50:35.481Z,13.55
2024-05-09T22:53:02.210Z,13.52
2024-05-09T22:55:31.499Z,13.50
2024-05-09T22:57:58.111Z,13.48
2024-05-09T23:02:54.146Z,13.40
2024-05-09T23:05:20.835Z,13.38
2024-05-09T23:07:47.431Z,13.35
2024-05-09T23:10:20.960Z,13.33
2024-05-09T23:12:56.615Z,13.31
2024-05-09T23:15:23.147Z,13.27
2024-05-09T23:17:49.949Z,13.27
2024-05-09T23:20:22.106Z,13.24
2024-05-09T23:22:56.475Z,13.23
2024-05-09T23:25:23.086Z,13.21
2024-05-09T23:27:49.779Z,13.20
2024-05-09T23:30:29.130Z,13.18
2024-05-09T23:33:03.690Z,13.16
2024-05-09T23:35:30.291Z,13.13
2024-05-09T23:37:56.820Z,13.13
2024-05-09T23:40:24.077Z,13.14
2024-05-09T23:42:56.794Z,13.13
2024-05-09T23:45:25.967Z,13.14
2024-05-09T23:47:52.793Z,13.13
2024-05-09T23:50:26.351Z,13.13
2024-05-09T23:52:59.213Z,13.12
2024-05-09T23:55:25.811Z,13.13
2024-05-09T23:57:52.402Z,13.13
